Terminal Aerodrome Forecast
Issued by NWS

Home | Current Version | Previous Version | Text Only | Print | Product List | Glossary On
Versions: 1 2 3 4 5 6 7 8 9 10 11 12 13 14 15 16 17 18
000
FTUS41 KCAR 041734
TAFBHB
TAF
KBHB 041734Z 0418/0518 19008KT P6SM FEW060 BKN150
     FM050000 VRB03KT P6SM BKN250
     FM051600 25006KT P6SM SCT250
      AMD LTD TO CLD VIS AND WIND=

USA.gov is the U.S. government's official web portal to all federal, state and local government web resources and services.